createdAt,value
2023-02-18T00:01:53.468Z,100532.56
2023-02-18T00:04:22.110Z,100517.19
2023-02-18T00:06:49.946Z,100529.19
2023-02-18T00:09:20.640Z,100523.16
2023-02-18T00:11:48.899Z,100514.69
2023-02-18T00:14:17.738Z,100525.81
2023-02-18T00:16:46.758Z,100516.44
2023-02-18T00:19:18.250Z,100508.75
2023-02-18T00:21:46.977Z,100508.69
2023-02-18T00:24:16.757Z,100509.59
2023-02-18T00:26:45.505Z,100502.78
2023-02-18T00:29:13.552Z,100495.91
2023-02-18T00:31:42.498Z,100496.75
2023-02-18T00:34:11.863Z,100478.84
2023-02-18T00:36:39.802Z,100482.28
2023-02-18T00:39:10.159Z,100479.69
2023-02-18T00:41:38.430Z,100481.41
2023-02-18T00:44:07.078Z,100476.31
2023-02-18T00:46:36.121Z,100477.13
2023-02-18T00:49:05.713Z,100475.47
2023-02-18T00:51:34.290Z,100473.75
2023-02-18T00:54:03.090Z,100457.66
2023-02-18T00:56:32.293Z,100467.75
2023-02-18T00:59:00.234Z,100466.12
2023-02-18T01:01:28.835Z,100468.72
2023-02-18T01:03:56.782Z,100471.34
2023-02-18T01:06:24.603Z,100454.41
2023-02-18T01:08:52.798Z,100462.00
2023-02-18T01:11:21.059Z,100462.75
2023-02-18T01:13:49.280Z,100450.84
2023-02-18T01:16:17.703Z,100445.09
2023-02-18T01:18:47.014Z,100435.84
2023-02-18T01:21:15.025Z,100439.28
2023-02-18T01:23:43.340Z,100444.00
2023-02-18T01:26:11.738Z,100434.00
2023-02-18T01:28:42.002Z,100433.09
2023-02-18T01:31:13.353Z,100433.31
2023-02-18T01:33:41.732Z,100419.56
2023-02-18T01:36:11.145Z,100416.91
2023-02-18T01:38:39.864Z,100416.78
2023-02-18T01:41:08.118Z,100418.78
2023-02-18T01:43:37.134Z,100419.84
2023-02-18T01:46:16.186Z,100421.47
2023-02-18T01:48:51.320Z,100409.47
2023-02-18T01:51:42.817Z,100427.47
2023-02-18T01:54:27.815Z,100427.16
2023-02-18T01:57:05.515Z,100419.25
2023-02-18T01:59:47.276Z,100414.13
2023-02-18T02:02:20.905Z,100404.00
2023-02-18T02:04:50.344Z,100413.59
2023-02-18T02:07:23.946Z,100403.47
2023-02-18T02:10:00.203Z,100406.47
2023-02-18T02:12:36.998Z,100392.13
2023-02-18T02:15:40.245Z,100386.50
2023-02-18T02:18:35.825Z,100388.94
2023-02-18T02:21:50.548Z,100381.28
2023-02-18T02:24:55.900Z,100379.81
2023-02-18T02:27:30.621Z,100367.00
2023-02-18T02:30:24.003Z,100356.81
2023-02-18T02:33:05.107Z,100354.16
2023-02-18T02:35:52.503Z,100360.22
2023-02-18T02:38:31.313Z,100342.25
2023-02-18T02:41:35.327Z,100343.84
2023-02-18T02:44:21.108Z,100340.75
2023-02-18T02:46:55.114Z,100337.31
2023-02-18T02:50:04.413Z,100339.84
2023-02-18T02:52:47.996Z,100323.38
2023-02-18T02:55:15.871Z,100326.34
2023-02-18T02:57:51.013Z,100327.09
2023-02-18T03:00:44.672Z,100309.13
2023-02-18T03:03:25.047Z,100307.44
2023-02-18T03:06:16.910Z,100314.38
2023-02-18T03:09:05.055Z,100310.91
2023-02-18T03:11:46.138Z,100311.22
2023-02-18T03:14:19.563Z,100308.66
2023-02-18T03:17:04.167Z,100306.66
2023-02-18T03:19:40.476Z,100303.31
2023-02-18T03:22:25.740Z,100300.22
2023-02-18T03:24:58.037Z,100293.28
2023-02-18T03:27:47.805Z,100282.66
2023-02-18T03:30:38.827Z,100278.44
2023-02-18T03:33:09.911Z,100271.69
2023-02-18T03:35:39.086Z,100274.03
2023-02-18T03:38:21.290Z,100272.00
2023-02-18T03:40:52.806Z,100258.66
2023-02-18T03:43:20.855Z,100251.13
2023-02-18T03:45:48.960Z,100252.59
2023-02-18T03:48:16.841Z,100248.94
2023-02-18T03:50:45.075Z,100254.00
2023-02-18T03:53:14.057Z,100255.88
2023-02-18T03:55:42.946Z,100243.00
2023-02-18T03:58:10.759Z,100240.59
2023-02-18T04:00:38.979Z,100227.06
2023-02-18T04:03:07.272Z,100231.53
2023-02-18T04:05:35.028Z,100233.34
2023-02-18T04:08:02.837Z,100229.91
2023-02-18T04:10:31.032Z,100231.78
2023-02-18T04:12:58.901Z,100216.53
2023-02-18T04:15:26.742Z,100212.44
2023-02-18T04:17:55.056Z,100220.84
2023-02-18T04:20:23.319Z,100203.63
2023-02-18T04:22:51.149Z,100180.03
2023-02-18T04:25:19.476Z,100209.13
2023-02-18T04:27:50.511Z,100200.28
2023-02-18T04:30:21.808Z,100191.97
2023-02-18T04:32:50.203Z,100186.06
2023-02-18T04:35:18.173Z,100187.31
2023-02-18T04:37:45.981Z,100185.69
2023-02-18T04:40:14.500Z,100183.94
2023-02-18T04:42:42.344Z,100167.47
2023-02-18T04:45:13.037Z,100184.19
2023-02-18T04:47:41.216Z,100176.41
2023-02-18T04:50:09.710Z,100151.94
2023-02-18T04:52:37.602Z,100165.28
2023-02-18T04:55:07.133Z,100168.00
2023-02-18T04:57:38.088Z,100155.44
2023-02-18T05:00:15.154Z,100156.91
2023-02-18T05:02:43.491Z,100158.50
2023-02-18T05:05:12.209Z,100149.34
2023-02-18T05:07:41.784Z,100148.56
2023-02-18T05:10:16.547Z,100155.06
2023-02-18T05:12:44.846Z,100146.25
2023-02-18T05:15:12.701Z,100146.94
2023-02-18T05:17:40.484Z,100137.28
2023-02-18T05:20:10.067Z,100137.78
2023-02-18T05:22:38.377Z,100129.34
2023-02-18T05:25:06.822Z,100133.06
2023-02-18T05:27:35.202Z,100124.87
2023-02-18T05:30:03.352Z,100123.28
2023-02-18T05:32:31.943Z,100122.25
2023-02-18T05:35:00.175Z,100117.84
2023-02-18T05:37:27.939Z,100116.91
2023-02-18T05:39:55.774Z,100114.69
2023-02-18T05:42:23.931Z,100110.69
2023-02-18T05:44:51.844Z,100107.00
2023-02-18T05:47:19.792Z,100099.06
2023-02-18T05:49:47.876Z,100093.56
2023-02-18T05:52:15.708Z,100089.88
2023-02-18T05:54:45.015Z,100089.78
2023-02-18T05:57:15.699Z,100077.72
2023-02-18T05:59:43.547Z,100084.34
2023-02-18T06:02:11.353Z,100077.66
2023-02-18T06:04:42.796Z,100075.50
2023-02-18T06:07:10.682Z,100062.44
2023-02-18T06:09:38.517Z,100066.63
2023-02-18T06:12:07.016Z,100067.13
2023-02-18T06:14:34.866Z,100044.66
2023-02-18T06:17:13.034Z,100054.91
2023-02-18T06:19:44.335Z,100049.63
2023-02-18T06:22:12.359Z,100041.81
2023-02-18T06:24:40.186Z,100047.69
2023-02-18T06:27:08.507Z,100037.22
2023-02-18T06:29:39.440Z,100036.13
2023-02-18T06:32:07.366Z,100031.28
2023-02-18T06:34:35.711Z,100031.56
2023-02-18T06:37:03.434Z,100026.34
2023-02-18T06:39:31.260Z,100022.38
2023-02-18T06:42:00.368Z,100018.81
2023-02-18T06:44:31.566Z,100007.38
2023-02-18T06:47:00.276Z,100010.22
2023-02-18T06:49:31.154Z,100004.50
2023-02-18T06:51:59.657Z,100003.13
2023-02-18T06:54:27.500Z,99999.66
2023-02-18T06:56:55.318Z,99994.41
2023-02-18T06:59:23.669Z,100003.66
2023-02-18T07:01:51.603Z,100001.19
2023-02-18T07:04:19.554Z,99990.72
2023-02-18T07:06:47.775Z,99994.03
2023-02-18T07:09:15.676Z,99890.72
2023-02-18T07:11:43.524Z,99984.06
2023-02-18T07:14:11.653Z,99962.91
2023-02-18T07:16:39.577Z,99983.88
2023-02-18T07:19:07.354Z,99976.78
2023-02-18T07:21:35.423Z,99975.94
2023-02-18T07:24:03.187Z,99963.03
2023-02-18T07:26:31.020Z,99962.91
2023-02-18T07:28:59.093Z,99961.22
2023-02-18T07:31:27.071Z,99951.03
2023-02-18T07:33:55.224Z,99940.63
2023-02-18T07:36:23.507Z,99944.84
2023-02-18T07:38:51.358Z,99929.28
2023-02-18T07:41:22.724Z,99916.66
2023-02-18T07:43:50.985Z,99925.00
2023-02-18T07:46:22.217Z,99927.66
2023-02-18T07:48:50.461Z,99917.97
2023-02-18T07:51:18.280Z,99915.50
2023-02-18T07:53:46.043Z,99909.34
2023-02-18T07:56:14.233Z,99899.84
2023-02-18T07:58:42.072Z,99902.41
2023-02-18T08:01:15.415Z,99903.13
2023-02-18T08:03:43.827Z,99888.72
2023-02-18T08:06:24.110Z,99886.97
2023-02-18T08:08:52.364Z,99866.59
2023-02-18T08:11:20.156Z,99880.59
2023-02-18T08:13:49.445Z,99870.25
2023-02-18T08:16:19.626Z,99867.00
2023-02-18T08:18:50.870Z,99868.66
2023-02-18T08:21:21.084Z,99864.37
2023-02-18T08:23:49.535Z,99862.56
2023-02-18T08:26:18.153Z,99855.66
2023-02-18T08:28:49.051Z,99856.37
2023-02-18T08:31:23.126Z,99848.25
2023-02-18T08:33:52.546Z,99839.56
2023-02-18T08:36:23.888Z,99841.06
2023-02-18T08:38:52.538Z,99831.63
2023-02-18T08:41:20.675Z,99836.81
2023-02-18T08:43:48.931Z,99828.41
2023-02-18T08:46:27.209Z,99832.28
2023-02-18T08:49:05.010Z,99827.47
2023-02-18T08:51:33.847Z,99814.03
2023-02-18T08:54:01.696Z,99809.41
2023-02-18T08:56:29.613Z,99811.19
2023-02-18T08:58:58.606Z,99789.47
2023-02-18T09:01:26.616Z,99797.81
2023-02-18T09:03:54.682Z,99790.38
2023-02-18T09:06:23.083Z,99790.88
2023-02-18T09:08:50.914Z,99785.72
2023-02-18T09:11:19.946Z,99775.94
2023-02-18T09:16:32.823Z,99765.84
2023-02-18T09:19:01.041Z,99776.94
2023-02-18T09:21:28.846Z,99761.53
2023-02-18T09:23:56.602Z,99758.22
2023-02-18T09:26:26.542Z,99749.63
2023-02-18T09:28:56.593Z,99750.09
2023-02-18T09:31:27.340Z,99747.44
2023-02-18T09:34:00.872Z,99737.97
2023-02-18T09:36:29.725Z,99732.81
2023-02-18T09:38:57.707Z,99726.97
2023-02-18T09:41:47.605Z,99734.59
2023-02-18T09:44:31.568Z,99725.09
2023-02-18T09:49:58.432Z,99706.94
2023-02-18T09:52:31.364Z,99699.88
2023-02-18T09:54:59.863Z,99705.84
2023-02-18T09:57:45.003Z,99695.13
2023-02-18T10:00:36.728Z,99692.94
2023-02-18T10:03:25.808Z,99683.47
2023-02-18T10:06:03.423Z,99684.06
2023-02-18T10:08:43.127Z,99684.66
2023-02-18T10:11:16.924Z,99677.38
2023-02-18T10:13:45.427Z,99671.31
2023-02-18T10:16:18.903Z,99666.19
2023-02-18T10:18:50.212Z,99670.34
2023-02-18T10:21:25.752Z,99660.25
2023-02-18T10:24:01.100Z,99667.81
2023-02-18T10:26:32.981Z,99651.28
2023-02-18T10:29:02.698Z,99654.88
2023-02-18T10:32:08.536Z,99646.75
2023-02-18T10:34:52.229Z,99645.53
2023-02-18T10:37:38.835Z,99640.41
2023-02-18T10:40:42.682Z,99633.34
2023-02-18T10:43:48.838Z,99614.41
2023-02-18T10:46:34.896Z,99619.03
2023-02-18T10:49:14.761Z,99610.25
2023-02-18T10:51:48.845Z,99606.25
2023-02-18T10:54:16.699Z,99598.09
2023-02-18T10:56:49.794Z,99595.75
2023-02-18T10:59:32.534Z,99589.00
2023-02-18T11:02:06.042Z,99567.94
2023-02-18T11:04:52.200Z,99582.50
2023-02-18T11:07:23.864Z,99578.88
2023-02-18T11:09:55.164Z,99576.44
2023-02-18T11:12:28.654Z,99567.44
2023-02-18T11:15:22.584Z,99563.28
2023-02-18T11:17:56.204Z,99575.69
2023-02-18T11:20:30.522Z,99563.34
2023-02-18T11:23:07.693Z,99564.50
2023-02-18T11:25:39.312Z,99567.47
2023-02-18T11:28:16.455Z,99546.28
2023-02-18T11:30:48.792Z,99555.62
2023-02-18T11:33:20.894Z,99552.44
2023-02-18T11:35:58.402Z,99541.44
2023-02-18T11:38:35.077Z,99536.69
2023-02-18T11:41:16.435Z,99537.63
2023-02-18T11:43:53.620Z,99533.91
2023-02-18T11:46:27.235Z,99522.97
2023-02-18T11:48:56.243Z,99527.44
2023-02-18T11:51:27.744Z,99528.16
2023-02-18T11:54:00.217Z,99521.16
2023-02-18T11:56:31.158Z,99521.03
2023-02-18T11:59:00.760Z,99517.38
2023-02-18T12:01:47.247Z,99500.22
2023-02-18T12:04:41.125Z,99484.97
2023-02-18T12:07:25.259Z,99502.00
2023-02-18T12:10:04.501Z,99493.38
2023-02-18T12:12:40.735Z,99485.78
2023-02-18T12:15:14.376Z,99482.59
2023-02-18T12:18:08.673Z,99485.38
2023-02-18T12:20:39.291Z,99475.06
2023-02-18T12:23:22.210Z,99465.69
2023-02-18T12:26:20.260Z,99470.06
2023-02-18T12:29:03.276Z,99477.75
2023-02-18T12:31:58.892Z,99483.03
2023-02-18T12:34:44.395Z,99469.59
2023-02-18T12:37:12.562Z,99464.53
2023-02-18T12:39:47.413Z,99463.50
2023-02-18T12:42:32.861Z,99473.03
2023-02-18T12:45:42.069Z,99459.09
2023-02-18T12:48:51.720Z,99451.13
2023-02-18T12:51:40.246Z,99446.22
2023-02-18T12:54:26.475Z,99448.56
2023-02-18T12:57:16.980Z,99441.53
2023-02-18T13:00:26.443Z,99430.81
2023-02-18T13:03:47.013Z,99425.19
2023-02-18T13:06:43.065Z,99425.31
2023-02-18T13:09:29.448Z,99420.69
2023-02-18T13:12:23.176Z,99403.00
2023-02-18T13:15:01.084Z,99396.94
2023-02-18T13:17:39.822Z,99403.19
2023-02-18T13:20:18.075Z,99410.03
2023-02-18T13:22:50.363Z,99405.97
2023-02-18T13:25:19.947Z,99404.72
2023-02-18T13:27:59.939Z,99396.19
2023-02-18T13:30:50.953Z,99396.50
2023-02-18T13:33:34.173Z,99392.00
2023-02-18T13:36:02.056Z,99387.09
2023-02-18T13:38:30.225Z,99397.97
2023-02-18T13:41:00.128Z,99390.50
2023-02-18T13:43:27.864Z,99394.62
2023-02-18T13:46:25.892Z,99399.25
2023-02-18T13:49:01.019Z,99389.25
2023-02-18T13:51:32.716Z,99391.03
2023-02-18T13:54:12.616Z,99385.47
2023-02-18T13:56:58.218Z,99382.19
2023-02-18T13:59:38.628Z,99389.13
2023-02-18T14:02:32.222Z,99374.00
2023-02-18T14:05:09.711Z,99373.81
2023-02-18T14:07:46.502Z,99365.72
2023-02-18T14:10:17.410Z,99377.84
2023-02-18T14:12:57.153Z,99367.50
2023-02-18T14:15:25.204Z,99361.75
2023-02-18T14:18:27.715Z,99361.94
2023-02-18T14:21:25.743Z,99349.50
2023-02-18T14:23:57.762Z,99331.41
2023-02-18T14:26:35.480Z,99337.81
2023-02-18T14:29:11.373Z,99337.47
2023-02-18T14:31:48.148Z,99337.06
2023-02-18T14:34:31.051Z,99331.91
2023-02-18T14:37:39.588Z,99331.28
2023-02-18T14:40:36.532Z,99335.69
2023-02-18T14:43:24.617Z,99329.78
2023-02-18T14:46:06.710Z,99326.28
2023-02-18T14:49:14.407Z,99315.84
2023-02-18T14:51:44.859Z,99318.50
2023-02-18T14:54:16.379Z,99310.06
2023-02-18T14:57:08.702Z,99306.47
2023-02-18T14:59:41.997Z,99308.97
2023-02-18T15:02:18.892Z,99278.56
2023-02-18T15:04:51.002Z,99296.75
2023-02-18T15:07:21.554Z,99301.03
2023-02-18T15:09:53.858Z,99295.75
2023-02-18T15:12:25.779Z,99295.84
2023-02-18T15:14:55.050Z,99292.78
2023-02-18T15:17:30.488Z,99293.38
2023-02-18T15:20:06.146Z,99291.72
2023-02-18T15:22:36.611Z,99291.34
2023-02-18T15:25:04.971Z,99281.50
2023-02-18T15:27:39.363Z,99279.84
2023-02-18T15:30:31.216Z,99281.22
2023-02-18T15:33:01.254Z,99284.19
2023-02-18T15:35:33.314Z,99261.97
2023-02-18T15:38:02.546Z,99276.31
2023-02-18T15:40:34.991Z,99261.59
2023-02-18T15:43:06.480Z,99261.97
2023-02-18T15:45:47.445Z,99262.50
2023-02-18T15:48:41.738Z,99253.06
2023-02-18T15:51:19.643Z,99252.84
2023-02-18T15:53:53.976Z,99239.31
2023-02-18T15:56:27.672Z,99243.59
2023-02-18T15:59:30.915Z,99241.19
2023-02-18T16:02:08.466Z,99233.19
2023-02-18T16:04:42.485Z,99224.53
2023-02-18T16:07:37.781Z,99219.06
2023-02-18T16:10:24.232Z,99208.69
2023-02-18T16:12:56.286Z,99210.97
2023-02-18T16:15:30.063Z,99206.94
2023-02-18T16:17:59.420Z,99208.37
2023-02-18T16:20:32.223Z,99213.97
2023-02-18T16:23:03.689Z,99204.06
2023-02-18T16:25:42.957Z,99202.47
2023-02-18T16:28:22.874Z,99204.81
2023-02-18T16:30:51.110Z,99195.13
2023-02-18T16:33:18.935Z,99181.09
2023-02-18T16:35:50.244Z,99186.34
2023-02-18T16:38:22.607Z,99192.09
2023-02-18T16:40:55.790Z,99192.59
2023-02-18T16:43:27.734Z,99177.16
2023-02-18T16:46:05.929Z,99178.78
2023-02-18T16:48:37.994Z,99172.84
2023-02-18T16:51:11.993Z,99170.28
2023-02-18T16:53:40.388Z,99175.81
2023-02-18T16:56:20.845Z,99163.75
2023-02-18T16:58:50.923Z,99163.56
2023-02-18T17:01:30.043Z,99169.91
2023-02-18T17:04:01.031Z,99169.69
2023-02-18T17:06:30.131Z,99167.03
2023-02-18T17:08:59.741Z,99165.03
2023-02-18T17:11:33.470Z,99159.62
2023-02-18T17:14:05.741Z,99162.97
2023-02-18T17:16:33.526Z,99156.13
2023-02-18T17:19:04.726Z,99155.53
2023-02-18T17:21:32.665Z,99148.00
2023-02-18T17:24:03.802Z,99149.50
2023-02-18T17:26:32.089Z,99152.44
2023-02-18T17:29:04.138Z,99152.22
2023-02-18T17:31:38.402Z,99150.47
2023-02-18T17:34:09.639Z,99148.13
2023-02-18T17:36:39.809Z,99143.91
2023-02-18T17:39:16.841Z,99148.03
2023-02-18T17:41:45.320Z,99137.03
2023-02-18T17:44:18.269Z,99133.47
2023-02-18T17:46:47.124Z,99137.03
2023-02-18T17:49:15.179Z,99117.59
2023-02-18T17:51:43.521Z,99134.41
2023-02-18T17:54:20.739Z,99131.31
2023-02-18T17:56:48.750Z,99127.16
2023-02-18T17:59:17.104Z,99122.59
2023-02-18T18:01:45.078Z,99120.75
2023-02-18T18:04:19.075Z,99112.91
2023-02-18T18:06:47.644Z,99109.87
2023-02-18T18:09:16.177Z,99092.19
2023-02-18T18:11:44.359Z,99104.09
2023-02-18T18:14:15.603Z,99098.09
2023-02-18T18:16:44.286Z,99097.97
2023-02-18T18:19:15.193Z,99099.50
2023-02-18T18:21:43.876Z,99093.69
2023-02-18T18:24:13.372Z,99099.88
2023-02-18T18:26:41.255Z,99076.16
2023-02-18T18:29:09.659Z,99097.88
2023-02-18T18:31:37.805Z,99096.56
2023-02-18T18:34:05.824Z,99103.81
2023-02-18T18:36:34.148Z,99097.09
2023-02-18T18:39:02.196Z,99092.13
2023-02-18T18:41:30.272Z,99088.19
2023-02-18T18:43:58.590Z,99085.44
2023-02-18T18:46:26.520Z,99071.06
2023-02-18T18:48:54.307Z,99075.38
2023-02-18T18:51:29.287Z,99078.63
2023-02-18T18:53:57.061Z,99054.31
2023-02-18T18:56:28.409Z,99077.59
2023-02-18T18:58:59.545Z,99075.44
2023-02-18T19:01:29.672Z,99065.91
2023-02-18T19:03:57.826Z,99061.84
2023-02-18T19:06:28.561Z,99047.44
2023-02-18T19:08:59.663Z,99060.78
2023-02-18T19:11:27.611Z,99057.50
2023-02-18T19:13:55.556Z,99029.66
2023-02-18T19:16:37.838Z,99056.25
2023-02-18T19:19:05.517Z,99034.28
2023-02-18T19:21:33.902Z,99059.88
2023-02-18T19:24:01.807Z,99036.50
2023-02-18T19:26:29.876Z,99049.75
2023-02-18T19:28:58.075Z,99051.75
2023-02-18T19:31:26.535Z,99038.81
2023-02-18T19:33:56.996Z,99044.88
2023-02-18T19:36:28.394Z,99042.88
2023-02-18T19:38:56.276Z,99052.31
2023-02-18T19:41:24.216Z,99056.19
2023-02-18T19:43:55.565Z,99049.88
2023-02-18T19:46:23.575Z,99045.53
2023-02-18T19:48:52.950Z,99043.94
2023-02-18T19:51:26.392Z,99042.00
2023-02-18T19:53:54.957Z,99043.66
2023-02-18T19:56:24.650Z,99037.12
2023-02-18T19:58:56.823Z,99031.75
2023-02-18T20:01:24.959Z,99028.56
2023-02-18T20:03:53.949Z,99027.66
2023-02-18T20:06:22.237Z,99016.06
2023-02-18T20:08:50.165Z,99030.12
2023-02-18T20:11:22.015Z,99005.19
2023-02-18T20:13:49.941Z,99024.81
2023-02-18T20:18:48.993Z,99021.78
2023-02-18T20:21:16.805Z,99020.34
2023-02-18T20:23:44.930Z,99016.72
2023-02-18T20:26:15.646Z,99019.13
2023-02-18T20:28:44.712Z,99006.72
2023-02-18T20:31:14.565Z,99010.50
2023-02-18T20:33:43.987Z,99013.44
2023-02-18T20:36:14.187Z,99012.50
2023-02-18T20:38:42.243Z,99003.88
2023-02-18T20:41:14.657Z,98996.59
2023-02-18T20:43:42.947Z,98998.16
2023-02-18T20:46:14.247Z,98990.56
2023-02-18T20:48:43.074Z,98996.44
2023-02-18T20:51:13.841Z,98986.16
2023-02-18T20:53:43.758Z,98984.22
2023-02-18T20:58:40.435Z,98994.53
2023-02-18T21:01:11.839Z,98981.59
2023-02-18T21:03:40.870Z,98989.56
2023-02-18T21:06:11.776Z,98985.91
2023-02-18T21:08:40.862Z,98983.56
2023-02-18T21:11:14.428Z,98980.03
2023-02-18T21:13:49.979Z,98976.72
2023-02-18T21:16:20.533Z,98975.00
2023-02-18T21:18:48.594Z,98967.50
2023-02-18T21:21:17.311Z,98970.72
2023-02-18T21:23:45.775Z,98967.09
2023-02-18T21:28:49.093Z,98962.94
2023-02-18T21:31:29.558Z,98960.53
2023-02-18T21:33:57.694Z,98960.53
2023-02-18T21:36:27.607Z,98960.47
2023-02-18T21:38:58.398Z,98958.75
2023-02-18T21:41:28.395Z,98956.03
2023-02-18T21:43:56.368Z,98955.09
2023-02-18T21:46:32.939Z,98963.34
2023-02-18T21:49:10.837Z,98955.75
2023-02-18T21:51:57.384Z,98948.63
2023-02-18T21:54:32.298Z,98946.47
2023-02-18T21:57:04.057Z,98941.97
2023-02-18T21:59:34.515Z,98944.63
2023-02-18T22:02:04.253Z,98945.28
2023-02-18T22:04:34.545Z,98947.34
2023-02-18T22:07:03.658Z,98942.00
2023-02-18T22:09:31.586Z,98936.88
2023-02-18T22:11:59.891Z,98934.25
2023-02-18T22:14:28.024Z,98935.50
2023-02-18T22:16:55.849Z,98923.16
2023-02-18T22:19:24.175Z,98923.16
2023-02-18T22:21:52.179Z,98924.22
2023-02-18T22:24:20.314Z,98922.53
2023-02-18T22:26:49.308Z,98932.69
2023-02-18T22:29:20.851Z,98923.63
2023-02-18T22:31:50.936Z,98920.22
2023-02-18T22:34:18.808Z,98932.06
2023-02-18T22:36:47.080Z,98916.69
2023-02-18T22:39:18.230Z,98923.47
2023-02-18T22:41:46.226Z,98917.28
2023-02-18T22:44:16.104Z,98915.06
2023-02-18T22:46:44.623Z,98916.56
2023-02-18T22:49:13.057Z,98915.19
2023-02-18T22:51:44.432Z,98915.09
2023-02-18T22:54:17.715Z,98916.69
2023-02-18T22:56:46.293Z,98914.13
2023-02-18T22:59:20.833Z,98911.63
2023-02-18T23:01:49.993Z,98918.44
2023-02-18T23:04:20.797Z,98915.97
2023-02-18T23:06:48.915Z,98910.37
2023-02-18T23:09:20.005Z,98908.84
2023-02-18T23:11:56.818Z,98906.62
2023-02-18T23:14:28.494Z,98909.66
2023-02-18T23:17:19.058Z,98901.88
2023-02-18T23:19:49.865Z,98905.72
2023-02-18T23:22:32.565Z,98907.03
2023-02-18T23:25:02.265Z,98909.41
2023-02-18T23:27:31.957Z,98902.06
2023-02-18T23:29:59.882Z,98897.53
2023-02-18T23:32:29.177Z,98890.25
2023-02-18T23:34:57.496Z,98899.34
2023-02-18T23:37:45.286Z,98897.72
2023-02-18T23:40:15.107Z,98893.22
2023-02-18T23:42:42.913Z,98892.81
2023-02-18T23:45:10.755Z,98884.31
2023-02-18T23:47:38.979Z,98887.06
2023-02-18T23:50:06.957Z,98891.22
2023-02-18T23:52:34.799Z,98888.72
2023-02-18T23:55:03.431Z,98868.72
2023-02-18T23:57:32.120Z,98884.00
